Main page
METAR-TAF:

METAR-TAF

Airports :

Leuchars, Scotland

Leuchars Station

latitude: 56-23N, longitude: 002-52W, elevation: 12 m

Current weather observation

The report was made 44 minutes ago, at 12:50 UTC
Wind 12 kt from the West/Northwest
Temperature 15°C
Humidity 72%
Pressure 1003 hPa
Visibility 10 km or more
Few clouds at a height of 3000 ft
Scattered clouds at a height of 4000 ft

METAR: EGQL 221250Z 30012KT 9999 FEW030 SCT040 15/10 Q1003 BLU

Time: 14:34 (13:34 UTC)

Forecast

The report was made 3 hours and 5 minutes ago, at 10:29 UTC
Forecast valid from 22 at 12 UTC to 22 at 21 UTC
Wind 14 kt from the West/Northwest
Visibility 10 km or more
Broken clouds at a height of 4000 ft
Probability 30% :
Temporary
from 22 at 12 UTC to 22 at 18 UTC
Wind 16 kt from the Northwest with gusts up to 26 kt
Visibility: 7000 m
rain showers

TAF: EGQL 221029Z 2212/2221 30014KT 9999 BKN040 PROB30 TEMPO 2212/2218 31016G26KT 7000 SHRA

Weather observations and forecasts of more than 4000 airports (METAR and TAF reports).

The available stations are represented by yellow and red dots on the map.

Hover mouse over dot to see the name of the station.

Then click to see weather observations and forecasts.

To change the map : click on the green buttons with a black cross to zoom in, on the green button with a dash to zoom out, or on the green arrows for adjacent maps.


METAR-TAF: